createdAt,value
2022-08-27T00:01:01.451Z,20.90
2022-08-27T00:03:36.230Z,20.90
2022-08-27T00:06:09.534Z,20.90
2022-08-27T00:08:45.552Z,20.80
2022-08-27T00:11:20.312Z,20.80
2022-08-27T00:13:53.501Z,20.80
2022-08-27T00:16:26.538Z,20.80
2022-08-27T00:19:00.931Z,20.80
2022-08-27T00:21:34.225Z,20.70
2022-08-27T00:24:07.154Z,20.70
2022-08-27T00:26:43.303Z,20.70
2022-08-27T00:29:17.313Z,20.70
2022-08-27T00:31:53.338Z,20.70
2022-08-27T00:34:27.699Z,20.70
2022-08-27T00:37:00.751Z,20.70
2022-08-27T00:39:34.892Z,20.70
2022-08-27T00:42:08.158Z,20.70
2022-08-27T00:44:40.973Z,20.70
2022-08-27T00:47:19.916Z,20.70
2022-08-27T00:49:57.193Z,20.70
2022-08-27T00:52:33.983Z,20.60
2022-08-27T00:55:16.358Z,20.70
2022-08-27T00:58:07.566Z,20.70
2022-08-27T01:00:40.726Z,20.70
2022-08-27T01:03:14.294Z,20.70
2022-08-27T01:05:50.426Z,20.60
2022-08-27T01:08:28.247Z,20.70
2022-08-27T01:11:01.544Z,20.70
2022-08-27T01:13:59.288Z,20.70
2022-08-27T01:16:36.278Z,20.70
2022-08-27T01:19:27.510Z,20.60
2022-08-27T01:22:09.458Z,20.60
2022-08-27T01:24:55.931Z,20.60
2022-08-27T01:27:31.366Z,20.60
2022-08-27T01:30:06.338Z,20.60
2022-08-27T01:32:39.260Z,20.60
2022-08-27T01:35:14.183Z,20.60
2022-08-27T01:37:49.669Z,20.60
2022-08-27T01:40:25.715Z,20.60
2022-08-27T01:42:59.488Z,20.60
2022-08-27T01:45:38.623Z,20.60
2022-08-27T01:48:11.803Z,20.60
2022-08-27T01:50:45.347Z,20.60
2022-08-27T01:53:22.086Z,20.60
2022-08-27T01:55:56.068Z,20.60
2022-08-27T01:58:31.351Z,20.60
2022-08-27T02:01:09.875Z,20.60
2022-08-27T02:03:43.435Z,20.60
2022-08-27T02:06:16.426Z,20.60
2022-08-27T02:08:49.241Z,20.50
2022-08-27T02:11:22.110Z,20.50
2022-08-27T02:13:55.019Z,20.50
2022-08-27T02:16:28.117Z,20.50
2022-08-27T02:19:01.285Z,20.50
2022-08-27T02:21:34.943Z,20.50
2022-08-27T02:24:07.724Z,20.50
2022-08-27T02:26:40.766Z,20.50
2022-08-27T02:29:13.636Z,20.50
2022-08-27T02:31:46.614Z,20.50
2022-08-27T02:34:19.414Z,20.50
2022-08-27T02:36:53.753Z,20.50
2022-08-27T02:39:26.656Z,20.50
2022-08-27T02:41:59.785Z,20.40
2022-08-27T02:44:32.618Z,20.40
2022-08-27T02:47:06.140Z,20.40
2022-08-27T02:49:38.993Z,20.40
2022-08-27T02:52:12.691Z,20.40
2022-08-27T02:54:46.265Z,20.40
2022-08-27T02:57:19.291Z,20.40
2022-08-27T02:59:52.797Z,20.40
2022-08-27T03:02:25.902Z,20.40
2022-08-27T03:05:00.542Z,20.40
2022-08-27T03:07:33.606Z,20.40
2022-08-27T03:10:07.591Z,20.40
2022-08-27T03:12:41.586Z,20.40
2022-08-27T03:15:17.062Z,20.40
2022-08-27T03:18:08.862Z,20.40
2022-08-27T03:20:44.486Z,20.40
2022-08-27T03:23:18.906Z,20.40
2022-08-27T03:25:57.515Z,20.30
2022-08-27T03:28:33.704Z,20.40
2022-08-27T03:31:12.937Z,20.40
2022-08-27T03:33:46.002Z,20.40
2022-08-27T03:36:18.738Z,20.30
2022-08-27T03:38:52.728Z,20.30
2022-08-27T03:41:53.956Z,20.30
2022-08-27T03:44:21.644Z,20.30
2022-08-27T03:46:55.746Z,20.30
2022-08-27T03:49:28.759Z,20.30
2022-08-27T03:52:01.953Z,20.30
2022-08-27T03:54:36.178Z,20.30
2022-08-27T03:57:09.162Z,20.30
2022-08-27T03:59:42.090Z,20.30
2022-08-27T04:02:16.236Z,20.30
2022-08-27T04:04:49.219Z,20.30
2022-08-27T04:07:21.991Z,20.20
2022-08-27T04:09:55.025Z,20.30
2022-08-27T04:12:27.836Z,20.30
2022-08-27T04:15:00.830Z,20.20
2022-08-27T04:17:33.782Z,20.30
2022-08-27T04:20:31.657Z,20.30
2022-08-27T04:23:01.596Z,20.30
2022-08-27T04:25:34.417Z,20.20
2022-08-27T04:28:08.276Z,20.30
2022-08-27T04:30:50.883Z,20.20
2022-08-27T04:33:23.887Z,20.20
2022-08-27T04:36:01.313Z,20.20
2022-08-27T04:38:34.549Z,20.20
2022-08-27T04:41:27.417Z,20.20
2022-08-27T04:44:05.561Z,20.20
2022-08-27T04:46:40.538Z,20.20
2022-08-27T04:49:15.285Z,20.30
2022-08-27T04:51:48.361Z,20.30
2022-08-27T04:54:28.519Z,20.30
2022-08-27T04:57:07.630Z,20.20
2022-08-27T04:59:40.390Z,20.20
2022-08-27T05:02:13.321Z,20.20
2022-08-27T05:04:46.245Z,20.20
2022-08-27T05:07:20.351Z,20.20
2022-08-27T05:09:54.101Z,20.20
2022-08-27T05:12:26.973Z,20.20
2022-08-27T05:14:59.835Z,20.20
2022-08-27T05:17:32.996Z,20.20
2022-08-27T05:20:06.290Z,20.20
2022-08-27T05:22:39.695Z,20.20
2022-08-27T05:25:12.604Z,20.20
2022-08-27T05:27:45.647Z,20.10
2022-08-27T05:30:18.655Z,20.10
2022-08-27T05:32:51.639Z,20.10
2022-08-27T05:35:24.398Z,20.20
2022-08-27T05:37:57.364Z,20.20
2022-08-27T05:40:30.634Z,20.20
2022-08-27T05:43:04.311Z,20.20
2022-08-27T05:45:48.482Z,20.30
2022-08-27T05:48:21.464Z,20.30
2022-08-27T05:50:54.303Z,20.30
2022-08-27T05:53:27.154Z,20.30
2022-08-27T05:56:00.552Z,20.30
2022-08-27T05:58:52.409Z,20.30
2022-08-27T06:01:25.901Z,20.30
2022-08-27T06:03:58.953Z,20.30
2022-08-27T06:06:38.598Z,20.40
2022-08-27T06:09:15.574Z,20.30
2022-08-27T06:11:49.002Z,20.30
2022-08-27T06:14:24.430Z,20.30
2022-08-27T06:17:00.896Z,20.20
2022-08-27T06:19:34.744Z,20.30
2022-08-27T06:22:09.956Z,20.30
2022-08-27T06:24:43.762Z,20.30
2022-08-27T06:27:19.070Z,20.40
2022-08-27T06:29:52.090Z,20.40
2022-08-27T06:32:25.992Z,20.40
2022-08-27T06:34:58.949Z,20.40
2022-08-27T06:37:31.783Z,20.40
2022-08-27T06:40:05.150Z,20.40
2022-08-27T06:42:38.376Z,20.40
2022-08-27T06:45:12.786Z,20.50
2022-08-27T06:47:45.637Z,20.50
2022-08-27T06:50:23.206Z,20.50
2022-08-27T06:52:58.297Z,20.50
2022-08-27T06:55:34.224Z,20.50
2022-08-27T06:58:10.744Z,20.50
2022-08-27T07:00:48.474Z,20.50
2022-08-27T07:03:21.961Z,20.50
2022-08-27T07:06:04.228Z,20.40
2022-08-27T07:08:37.270Z,20.40
2022-08-27T07:11:12.973Z,20.50
2022-08-27T07:13:49.326Z,20.40
2022-08-27T07:16:24.749Z,20.40
2022-08-27T07:19:02.907Z,20.40
2022-08-27T07:21:38.239Z,20.40
2022-08-27T07:24:12.437Z,20.40
2022-08-27T07:26:46.863Z,20.40
2022-08-27T07:29:20.080Z,20.50
2022-08-27T07:31:53.143Z,20.50
2022-08-27T07:34:26.156Z,20.50
2022-08-27T07:36:59.101Z,20.60
2022-08-27T07:39:31.893Z,20.60
2022-08-27T07:42:23.727Z,20.60
2022-08-27T07:44:56.575Z,20.60
2022-08-27T07:47:30.886Z,20.60
2022-08-27T07:50:03.905Z,20.70
2022-08-27T07:52:36.816Z,20.70
2022-08-27T07:55:13.872Z,20.80
2022-08-27T07:57:48.334Z,20.80
2022-08-27T08:00:21.618Z,20.80
2022-08-27T08:02:54.639Z,20.80
2022-08-27T08:05:28.100Z,20.70
2022-08-27T08:08:00.935Z,20.70
2022-08-27T08:10:36.866Z,20.70
2022-08-27T08:13:09.721Z,20.80
2022-08-27T08:15:47.154Z,20.80
2022-08-27T08:18:20.197Z,20.80
2022-08-27T08:20:58.598Z,20.80
2022-08-27T08:23:32.901Z,20.70
2022-08-27T08:26:06.823Z,20.80
2022-08-27T08:28:40.633Z,20.80
2022-08-27T08:31:13.514Z,20.90
2022-08-27T08:34:12.482Z,20.90
2022-08-27T08:36:53.769Z,20.80
2022-08-27T08:39:28.005Z,20.80
2022-08-27T08:42:03.222Z,20.90
2022-08-27T08:44:48.509Z,20.90
2022-08-27T08:47:31.301Z,20.70
2022-08-27T08:50:20.078Z,20.70
2022-08-27T08:53:05.001Z,20.70
2022-08-27T08:55:47.211Z,20.60
2022-08-27T08:58:47.819Z,20.60
2022-08-27T09:01:21.627Z,20.60
2022-08-27T09:04:04.398Z,20.60
2022-08-27T09:06:50.174Z,20.60
2022-08-27T09:09:37.087Z,20.50
2022-08-27T09:12:19.095Z,20.60
2022-08-27T09:15:01.027Z,20.60
2022-08-27T09:17:35.109Z,20.50
2022-08-27T09:20:13.045Z,20.50
2022-08-27T09:23:05.392Z,20.60
2022-08-27T09:25:41.318Z,20.60
2022-08-27T09:28:38.579Z,20.70
2022-08-27T09:31:17.319Z,20.80
2022-08-27T09:33:56.201Z,20.80
2022-08-27T09:36:30.426Z,20.80
2022-08-27T09:39:06.741Z,20.90
2022-08-27T09:42:04.871Z,20.90
2022-08-27T09:44:53.524Z,20.90
2022-08-27T09:47:27.238Z,21.00
2022-08-27T09:50:09.902Z,21.00
2022-08-27T09:52:59.092Z,21.10
2022-08-27T09:55:50.383Z,21.20
2022-08-27T09:58:53.963Z,21.20
2022-08-27T10:01:55.919Z,21.30
2022-08-27T10:04:50.042Z,21.30
2022-08-27T10:07:39.320Z,21.30
2022-08-27T10:10:40.765Z,21.30
2022-08-27T10:13:40.842Z,21.40
2022-08-27T10:16:19.575Z,21.40
2022-08-27T10:19:30.996Z,21.40
2022-08-27T10:22:18.445Z,21.30
2022-08-27T10:25:22.910Z,21.30
2022-08-27T10:28:21.547Z,21.30
2022-08-27T10:31:05.374Z,21.30
2022-08-27T10:34:12.355Z,21.30
2022-08-27T10:36:51.394Z,21.20
2022-08-27T10:39:44.878Z,21.20
2022-08-27T10:42:39.217Z,21.30
2022-08-27T10:45:42.410Z,21.30
2022-08-27T10:48:24.435Z,21.20
2022-08-27T10:51:11.195Z,21.20
2022-08-27T10:54:10.289Z,21.20
2022-08-27T10:57:26.143Z,21.20
2022-08-27T11:00:12.138Z,21.10
2022-08-27T11:02:52.447Z,21.10
2022-08-27T11:05:34.813Z,21.10
2022-08-27T11:08:34.904Z,21.10
2022-08-27T11:12:12.802Z,21.20
2022-08-27T11:14:47.555Z,21.20
2022-08-27T11:17:56.362Z,21.20
2022-08-27T11:20:34.824Z,21.30
2022-08-27T11:23:13.562Z,21.50
2022-08-27T11:25:52.437Z,21.60
2022-08-27T11:28:37.154Z,21.70
2022-08-27T11:31:13.076Z,21.90
2022-08-27T11:33:51.969Z,22.00
2022-08-27T11:36:54.086Z,22.20
2022-08-27T11:39:49.853Z,22.20
2022-08-27T11:42:44.359Z,22.30
2022-08-27T11:45:34.630Z,22.50
2022-08-27T11:48:30.367Z,22.60
2022-08-27T11:51:24.798Z,22.60
2022-08-27T11:54:07.690Z,22.50
2022-08-27T11:56:43.354Z,22.50
2022-08-27T11:59:27.848Z,22.50
2022-08-27T12:02:21.097Z,22.50
2022-08-27T12:05:24.483Z,22.50
2022-08-27T12:08:01.059Z,22.40
2022-08-27T12:11:01.712Z,22.20
2022-08-27T12:13:44.393Z,22.20
2022-08-27T12:16:48.251Z,22.30
2022-08-27T12:20:03.440Z,22.40
2022-08-27T12:23:17.831Z,22.40
2022-08-27T12:26:00.338Z,22.40
2022-08-27T12:28:33.301Z,22.50
2022-08-27T12:31:06.633Z,22.50
2022-08-27T12:33:47.351Z,22.50
2022-08-27T12:36:28.257Z,22.50
2022-08-27T12:39:03.668Z,22.40
2022-08-27T12:41:43.865Z,22.50
2022-08-27T12:44:31.366Z,22.40
2022-08-27T12:47:11.943Z,22.40
2022-08-27T12:49:53.850Z,22.40
2022-08-27T12:52:50.062Z,22.30
2022-08-27T12:55:53.387Z,22.30
2022-08-27T12:58:44.237Z,22.30
2022-08-27T13:01:55.239Z,22.30
2022-08-27T13:04:31.214Z,22.20
2022-08-27T13:07:04.147Z,22.20
2022-08-27T13:09:39.308Z,22.20
2022-08-27T13:12:17.721Z,22.20
2022-08-27T13:14:56.805Z,22.20
2022-08-27T13:17:30.384Z,22.30
2022-08-27T13:20:03.737Z,22.40
2022-08-27T13:22:39.399Z,22.30
2022-08-27T13:26:05.949Z,22.30
2022-08-27T13:28:41.441Z,22.20
2022-08-27T13:31:15.042Z,22.20
2022-08-27T13:33:48.267Z,22.30
2022-08-27T13:36:35.558Z,22.30
2022-08-27T13:39:36.700Z,22.40
2022-08-27T13:42:09.649Z,22.40
2022-08-27T13:44:48.035Z,22.40
2022-08-27T13:47:23.659Z,22.50
2022-08-27T13:50:11.675Z,22.50
2022-08-27T13:53:02.995Z,22.50
2022-08-27T13:55:37.951Z,22.50
2022-08-27T13:58:20.454Z,22.60
2022-08-27T14:00:54.258Z,22.50
2022-08-27T14:03:32.518Z,22.60
2022-08-27T14:06:05.845Z,22.60
2022-08-27T14:08:38.848Z,22.60
2022-08-27T14:11:11.614Z,22.70
2022-08-27T14:13:49.248Z,22.70
2022-08-27T14:16:22.072Z,22.80
2022-08-27T14:19:11.617Z,22.80
2022-08-27T14:21:45.239Z,23.00
2022-08-27T14:24:18.081Z,22.90
2022-08-27T14:26:52.551Z,22.90
2022-08-27T14:29:25.294Z,23.00
2022-08-27T14:31:58.024Z,23.10
2022-08-27T14:34:31.077Z,23.00
2022-08-27T14:37:04.947Z,23.00
2022-08-27T14:39:39.121Z,23.00
2022-08-27T14:42:14.967Z,22.90
2022-08-27T14:44:47.799Z,22.90
2022-08-27T14:47:20.870Z,22.90
2022-08-27T14:49:53.725Z,22.90
2022-08-27T14:52:26.755Z,22.80
2022-08-27T14:54:59.577Z,22.90
2022-08-27T14:57:32.553Z,22.90
2022-08-27T15:00:30.826Z,23.00
2022-08-27T15:03:03.678Z,23.10
2022-08-27T15:05:36.891Z,23.10
2022-08-27T15:08:13.167Z,23.20
2022-08-27T15:10:46.361Z,23.20
2022-08-27T15:13:19.073Z,23.10
2022-08-27T15:15:52.778Z,23.10
2022-08-27T15:18:25.626Z,23.00
2022-08-27T15:20:59.378Z,23.00
2022-08-27T15:23:32.311Z,22.90
2022-08-27T15:26:05.374Z,22.90
2022-08-27T15:28:38.104Z,22.90
2022-08-27T15:31:10.991Z,23.00
2022-08-27T15:33:45.369Z,23.00
2022-08-27T15:36:18.332Z,23.00
2022-08-27T15:38:51.336Z,23.00
2022-08-27T15:41:28.567Z,22.90
2022-08-27T15:44:02.406Z,22.90
2022-08-27T15:46:35.382Z,22.90
2022-08-27T15:49:15.248Z,22.90
2022-08-27T15:51:48.063Z,23.00
2022-08-27T15:54:20.909Z,23.00
2022-08-27T15:56:53.653Z,23.00
2022-08-27T15:59:27.193Z,23.00
2022-08-27T16:02:00.993Z,23.00
2022-08-27T16:04:33.980Z,23.10
2022-08-27T16:07:06.830Z,23.00
2022-08-27T16:09:39.696Z,23.00
2022-08-27T16:12:12.472Z,23.00
2022-08-27T16:15:00.931Z,23.00
2022-08-27T16:17:35.290Z,23.00
2022-08-27T16:20:10.010Z,23.00
2022-08-27T16:22:43.817Z,22.90
2022-08-27T16:25:20.665Z,22.90
2022-08-27T16:27:53.633Z,22.80
2022-08-27T16:30:27.782Z,22.70
2022-08-27T16:33:01.333Z,22.70
2022-08-27T16:35:34.323Z,22.60
2022-08-27T16:38:09.193Z,22.60
2022-08-27T16:40:49.242Z,22.60
2022-08-27T16:43:25.606Z,22.50
2022-08-27T16:46:03.236Z,22.50
2022-08-27T16:49:01.028Z,22.50
2022-08-27T16:51:36.193Z,22.50
2022-08-27T16:54:11.791Z,22.50
2022-08-27T16:56:46.345Z,22.50
2022-08-27T16:59:19.174Z,22.50
2022-08-27T17:01:53.925Z,22.40
2022-08-27T17:04:32.283Z,22.40
2022-08-27T17:07:11.146Z,22.40
2022-08-27T17:09:44.149Z,22.40
2022-08-27T17:12:21.698Z,22.40
2022-08-27T17:14:56.454Z,22.40
2022-08-27T17:17:30.118Z,22.50
2022-08-27T17:20:03.595Z,22.50
2022-08-27T17:22:37.318Z,22.50
2022-08-27T17:25:13.680Z,22.50
2022-08-27T17:27:47.098Z,22.50
2022-08-27T17:30:20.183Z,22.40
2022-08-27T17:32:53.879Z,22.30
2022-08-27T17:35:27.120Z,22.20
2022-08-27T17:38:00.612Z,22.20
2022-08-27T17:40:33.568Z,22.10
2022-08-27T17:43:06.668Z,22.10
2022-08-27T17:45:39.650Z,22.10
2022-08-27T17:48:51.246Z,21.90
2022-08-27T17:51:24.181Z,21.80
2022-08-27T17:54:01.580Z,21.60
2022-08-27T17:56:34.576Z,21.50
2022-08-27T17:59:07.505Z,21.40
2022-08-27T18:01:41.229Z,21.30
2022-08-27T18:04:14.975Z,21.20
2022-08-27T18:06:48.101Z,21.10
2022-08-27T18:09:21.239Z,21.10
2022-08-27T18:11:54.326Z,21.00
2022-08-27T18:14:29.656Z,20.90
2022-08-27T18:17:02.567Z,20.90
2022-08-27T18:19:37.518Z,20.90
2022-08-27T18:22:10.642Z,20.80
2022-08-27T18:24:43.497Z,20.80
2022-08-27T18:27:16.382Z,20.70
2022-08-27T18:29:50.050Z,20.60
2022-08-27T18:32:27.124Z,20.60
2022-08-27T18:35:03.832Z,20.60
2022-08-27T18:37:36.636Z,20.50
2022-08-27T18:40:11.594Z,20.50
2022-08-27T18:42:51.801Z,20.40
2022-08-27T18:45:28.513Z,20.50
2022-08-27T18:48:02.660Z,20.40
2022-08-27T18:50:43.549Z,20.40
2022-08-27T18:53:18.434Z,20.40
2022-08-27T18:55:52.069Z,20.30
2022-08-27T18:58:25.231Z,20.30
2022-08-27T19:01:01.450Z,20.30
2022-08-27T19:03:38.852Z,20.20
2022-08-27T19:06:12.234Z,20.30
2022-08-27T19:08:45.190Z,20.30
2022-08-27T19:11:18.243Z,20.30
2022-08-27T19:13:51.144Z,20.20
2022-08-27T19:16:50.143Z,20.20
2022-08-27T19:19:25.778Z,20.10
2022-08-27T19:21:59.342Z,20.00
2022-08-27T19:24:36.890Z,20.00
2022-08-27T19:27:13.498Z,20.00
2022-08-27T19:29:46.290Z,19.90
2022-08-27T19:32:19.683Z,19.90
2022-08-27T19:34:53.522Z,19.90
2022-08-27T19:37:29.465Z,19.90
2022-08-27T19:40:02.552Z,19.90
2022-08-27T19:42:35.451Z,19.90
2022-08-27T19:45:09.169Z,19.90
2022-08-27T19:47:42.113Z,19.80
2022-08-27T19:50:17.245Z,19.70
2022-08-27T19:52:51.412Z,19.70
2022-08-27T19:55:24.237Z,19.60
2022-08-27T19:57:57.217Z,19.60
2022-08-27T20:00:30.024Z,19.60
2022-08-27T20:03:02.889Z,19.60
2022-08-27T20:05:36.261Z,19.60
2022-08-27T20:08:09.392Z,19.60
2022-08-27T20:10:45.778Z,19.60
2022-08-27T20:13:18.800Z,19.50
2022-08-27T20:15:53.049Z,19.50
2022-08-27T20:18:26.201Z,19.50
2022-08-27T20:20:58.949Z,19.50
2022-08-27T20:23:38.687Z,19.40
2022-08-27T20:26:11.593Z,19.40
2022-08-27T20:28:44.631Z,19.40
2022-08-27T20:31:17.869Z,19.30
2022-08-27T20:33:51.186Z,19.30
2022-08-27T20:36:28.301Z,19.30
2022-08-27T20:39:01.544Z,19.30
2022-08-27T20:41:34.559Z,19.30
2022-08-27T20:44:07.304Z,19.30
2022-08-27T20:46:40.071Z,19.30
2022-08-27T20:49:13.173Z,19.20
2022-08-27T20:52:01.774Z,19.20
2022-08-27T20:54:37.299Z,19.20
2022-08-27T20:57:10.356Z,19.20
2022-08-27T21:00:01.667Z,19.20
2022-08-27T21:02:34.525Z,19.20
2022-08-27T21:05:15.081Z,19.20
2022-08-27T21:07:48.870Z,19.20
2022-08-27T21:10:21.810Z,19.20
2022-08-27T21:12:54.963Z,19.20
2022-08-27T21:15:27.807Z,19.20
2022-08-27T21:18:00.711Z,19.20
2022-08-27T21:20:34.425Z,19.10
2022-08-27T21:23:07.220Z,19.10
2022-08-27T21:25:41.539Z,19.10
2022-08-27T21:28:14.428Z,19.00
2022-08-27T21:30:47.129Z,19.00
2022-08-27T21:33:20.303Z,19.00
2022-08-27T21:35:53.244Z,18.90
2022-08-27T21:38:25.979Z,18.90
2022-08-27T21:40:59.834Z,18.90
2022-08-27T21:43:32.667Z,18.90
2022-08-27T21:46:06.252Z,18.90
2022-08-27T21:48:39.559Z,18.90
2022-08-27T21:51:15.145Z,18.90
2022-08-27T21:53:59.090Z,18.90
2022-08-27T21:56:31.957Z,18.80
2022-08-27T21:59:06.216Z,18.80
2022-08-27T22:01:39.408Z,18.80
2022-08-27T22:04:13.239Z,18.80
2022-08-27T22:06:45.973Z,18.90
2022-08-27T22:09:19.067Z,18.90
2022-08-27T22:11:51.893Z,18.90
2022-08-27T22:14:25.718Z,18.90
2022-08-27T22:16:58.649Z,18.90
2022-08-27T22:19:31.503Z,18.90
2022-08-27T22:22:05.159Z,18.90
2022-08-27T22:24:38.049Z,18.90
2022-08-27T22:27:10.972Z,19.00
2022-08-27T22:29:43.735Z,19.00
2022-08-27T22:32:16.621Z,19.00
2022-08-27T22:34:49.526Z,19.00
2022-08-27T22:37:22.558Z,19.00
2022-08-27T22:39:55.377Z,19.00
2022-08-27T22:42:28.486Z,19.00
2022-08-27T22:45:01.738Z,19.00
2022-08-27T22:47:34.852Z,19.00
2022-08-27T22:50:08.425Z,19.10
2022-08-27T22:52:42.810Z,19.00
2022-08-27T22:55:19.329Z,19.10
2022-08-27T22:57:54.240Z,19.00
2022-08-27T23:00:30.833Z,19.00
2022-08-27T23:03:06.778Z,19.10
2022-08-27T23:05:41.902Z,19.00
2022-08-27T23:08:16.016Z,19.00
2022-08-27T23:10:49.075Z,19.00
2022-08-27T23:13:22.350Z,19.10
2022-08-27T23:15:56.578Z,19.10
2022-08-27T23:18:30.019Z,19.10
2022-08-27T23:21:05.907Z,19.10
2022-08-27T23:23:38.899Z,19.00
2022-08-27T23:26:30.618Z,19.00
2022-08-27T23:29:03.725Z,19.00
2022-08-27T23:31:37.405Z,19.00
2022-08-27T23:34:10.358Z,19.00
2022-08-27T23:36:43.207Z,19.00
2022-08-27T23:39:16.797Z,18.90
2022-08-27T23:41:49.838Z,19.00
2022-08-27T23:44:22.821Z,18.90
2022-08-27T23:46:55.779Z,18.90
2022-08-27T23:49:28.893Z,18.90
2022-08-27T23:52:02.446Z,18.90
2022-08-27T23:54:35.387Z,18.90
2022-08-27T23:57:08.244Z,18.90
2022-08-27T23:59:41.234Z,18.90
